Time;durP1;ratioP1;P1;durP2;ratioP2;P2;SDS_P1;SDS_P2;PMS_P1;PMS_P2;Temp;Humidity;BMP_temperature;BMP_pressure;BME280_temperature;BME280_humidity;BME280_pressure;Samples;Min_cycle;Max_cycle;Signal;HPM_P1;HPM_P2
2024/01/13 00:00:03;;;;;;;1999.90;999.90;;;3.30;99.90;;;;;;5046986;28;20040;-80
2024/01/13 00:02:29;;;;;;;1999.90;999.90;;;3.30;99.90;;;;;;5064111;28;20073;-80
2024/01/13 00:04:55;;;;;;;1999.90;999.90;;;3.30;99.90;;;;;;5047132;28;20032;-81
2024/01/13 00:07:20;;;;;;;1999.90;999.90;;;4.20;99.90;;;;;;5060729;28;20047;-79
2024/01/13 00:09:46;;;;;;;1999.90;999.90;;;3.20;99.90;;;;;;5064424;28;20112;-80
2024/01/13 00:12:12;;;;;;;1999.90;999.90;;;3.20;99.90;;;;;;5066683;28;20063;-80
2024/01/13 00:14:37;;;;;;;1999.90;999.90;;;3.30;99.90;;;;;;5045739;28;20056;-81
2024/01/13 00:17:03;;;;;;;1999.90;999.90;;;3.30;99.90;;;;;;5065575;28;20040;-80
2024/01/13 00:19:29;;;;;;;1999.90;999.90;;;3.30;99.90;;;;;;5048032;28;20041;-79
2024/01/13 00:21:54;;;;;;;1999.90;999.90;;;3.30;99.90;;;;;;5067332;28;20059;-80
2024/01/13 00:24:20;;;;;;;1999.90;999.90;;;3.30;99.90;;;;;;5050019;28;20048;-79
2024/01/13 00:26:46;;;;;;;1999.90;999.90;;;3.30;99.90;;;;;;5059799;28;20090;-80
2024/01/13 00:29:11;;;;;;;1999.90;999.90;;;3.30;99.90;;;;;;5054348;28;20036;-80
2024/01/13 00:31:37;;;;;;;1999.90;999.90;;;3.30;99.90;;;;;;5047674;28;20036;-81
2024/01/13 00:34:03;;;;;;;1999.90;999.90;;;3.30;99.90;;;;;;5066285;28;20036;-81
2024/01/13 00:36:28;;;;;;;1999.90;999.90;;;3.30;99.90;;;;;;5049926;28;20139;-81
2024/01/13 00:38:54;;;;;;;1999.90;999.90;;;3.30;99.90;;;;;;5064657;28;20060;-80
2024/01/13 00:41:20;;;;;;;1999.90;999.90;;;3.30;99.90;;;;;;5066603;28;20036;-80
2024/01/13 00:43:47;;;;;;;1999.90;999.90;;;3.30;99.90;;;;;;5062999;28;20509;-80
2024/01/13 00:46:12;;;;;;;1999.90;999.90;;;3.30;99.90;;;;;;5047370;28;20045;-80
2024/01/13 00:48:38;;;;;;;1999.90;999.90;;;3.30;99.90;;;;;;5066160;28;20071;-80
2024/01/13 00:51:04;;;;;;;1999.90;999.90;;;3.30;99.90;;;;;;5048804;28;20033;-80
2024/01/13 00:53:31;;;;;;;1999.90;999.90;;;3.30;99.90;;;;;;5065596;28;20522;-79
2024/01/13 00:55:57;;;;;;;1999.90;999.90;;;3.30;99.90;;;;;;5048087;28;20036;-80
2024/01/13 00:58:23;;;;;;;1999.90;999.90;;;3.30;99.90;;;;;;5063302;28;20402;-80
2024/01/13 01:00:48;;;;;;;1999.90;999.90;;;3.40;99.90;;;;;;5067302;28;20529;-80
2024/01/13 01:03:14;;;;;;;1999.90;999.90;;;3.50;99.90;;;;;;5044454;28;20037;-80
2024/01/13 01:05:40;;;;;;;1999.90;999.90;;;3.40;99.90;;;;;;5064761;28;20441;-80
2024/01/13 01:08:05;;;;;;;1999.90;999.90;;;3.40;99.90;;;;;;5065170;28;20037;-80
2024/01/13 01:10:31;;;;;;;1999.90;999.90;;;3.40;99.90;;;;;;5062405;28;20515;-80
2024/01/13 01:12:57;;;;;;;1999.90;999.90;;;3.40;99.90;;;;;;5064667;28;20029;-80
2024/01/13 01:15:22;;;;;;;1999.90;999.90;;;3.50;99.90;;;;;;5049161;28;20091;-80
2024/01/13 01:17:48;;;;;;;1999.90;999.90;;;3.30;99.90;;;;;;5046862;28;20562;-80
2024/01/13 01:20:14;;;;;;;1999.90;999.90;;;3.30;99.90;;;;;;5065592;28;20049;-80
2024/01/13 01:22:39;;;;;;;1999.90;999.90;;;3.30;99.90;;;;;;5065267;28;20083;-80
2024/01/13 01:25:05;;;;;;;1999.90;999.90;;;3.30;99.90;;;;;;5044793;28;20425;-80
2024/01/13 01:27:31;;;;;;;1999.90;999.90;;;3.20;99.90;;;;;;5066796;28;20064;-80
2024/01/13 01:29:56;;;;;;;1999.90;999.90;;;3.20;99.90;;;;;;5063312;28;20033;-80
2024/01/13 01:32:22;;;;;;;1999.90;999.90;;;3.20;99.90;;;;;;5050572;28;20460;-79
2024/01/13 01:34:48;;;;;;;1999.90;999.90;;;3.20;99.90;;;;;;5048644;28;20039;-80
2024/01/13 01:37:13;;;;;;;1999.90;999.90;;;3.20;99.90;;;;;;5066419;28;20123;-80
2024/01/13 01:39:42;;;;;;;1999.90;999.90;;;3.20;99.90;;;;;;5068528;28;20040;-80
2024/01/13 01:42:07;;;;;;;1999.90;999.90;;;3.20;99.90;;;;;;5045979;28;20051;-80
2024/01/13 01:44:33;;;;;;;1999.90;999.90;;;3.30;99.90;;;;;;5063243;28;20036;-80
2024/01/13 01:47:00;;;;;;;1999.90;999.90;;;3.30;99.90;;;;;;5066228;28;20037;-80
2024/01/13 01:49:26;;;;;;;1999.90;999.90;;;3.30;99.90;;;;;;5041885;28;20049;-80
2024/01/13 01:51:52;;;;;;;1999.90;999.90;;;3.30;99.90;;;;;;5046508;28;20041;-81
2024/01/13 01:54:18;;;;;;;1999.90;999.90;;;3.30;99.90;;;;;;5063003;28;20505;-80
2024/01/13 01:56:44;;;;;;;1999.90;999.90;;;3.30;99.90;;;;;;5046970;28;20048;-80
2024/01/13 01:59:10;;;;;;;1999.90;999.90;;;3.30;99.90;;;;;;5050569;28;20064;-80
2024/01/13 02:01:36;;;;;;;1999.90;999.90;;;4.10;99.90;;;;;;5049114;28;20036;-81
2024/01/13 02:04:03;;;;;;;1999.90;999.90;;;4.40;99.90;;;;;;5066617;28;20077;-80
2024/01/13 02:06:30;;;;;;;1999.90;999.90;;;3.30;99.90;;;;;;5045925;28;20664;-80
2024/01/13 02:08:56;;;;;;;1999.90;999.90;;;4.50;99.90;;;;;;5064354;28;20081;-80
2024/01/13 02:11:21;;;;;;;1999.90;999.90;;;4.70;99.90;;;;;;5063891;28;20056;-80
2024/01/13 02:13:49;;;;;;;1999.90;999.90;;;3.90;99.90;;;;;;5063653;28;20040;-80
2024/01/13 02:16:15;;;;;;;1999.90;999.90;;;4.10;99.90;;;;;;5063080;28;20045;-80
2024/01/13 02:18:41;;;;;;;1999.90;999.90;;;4.00;99.90;;;;;;5049606;28;20044;-80
2024/01/13 02:21:07;;;;;;;1999.90;999.90;;;3.30;99.90;;;;;;5059078;28;20048;-81
2024/01/13 02:23:33;;;;;;;1999.90;999.90;;;3.30;99.90;;;;;;5047138;28;20036;-81
2024/01/13 02:26:02;;;;;;;1999.90;999.90;;;3.30;99.90;;;;;;5048468;28;20127;-80
2024/01/13 02:28:27;;;;;;;1999.90;999.90;;;3.30;99.90;;;;;;5057233;28;20210;-81
2024/01/13 02:30:53;;;;;;;1999.90;999.90;;;3.30;99.90;;;;;;5049627;28;20060;-80
2024/01/13 02:33:18;;;;;;;1999.90;999.90;;;3.30;99.90;;;;;;5069391;28;20063;-80
2024/01/13 02:35:44;;;;;;;1999.90;999.90;;;3.30;99.90;;;;;;5068572;28;20039;-80
2024/01/13 02:38:10;;;;;;;1999.90;999.90;;;3.30;99.90;;;;;;5049854;28;20040;-80
2024/01/13 02:40:35;;;;;;;1999.90;999.90;;;3.30;99.90;;;;;;5066424;28;20037;-81
2024/01/13 02:43:01;;;;;;;1999.90;999.90;;;3.20;99.90;;;;;;5053925;28;20456;-80
2024/01/13 02:45:26;;;;;;;1999.90;999.90;;;3.30;99.90;;;;;;5069349;28;20033;-80
2024/01/13 02:47:58;;;;;;;1999.90;999.90;;;3.30;99.90;;;;;;5065012;28;20524;-80
2024/01/13 02:50:24;;;;;;;1999.90;999.90;;;3.30;99.90;;;;;;5048821;28;20079;-80
2024/01/13 02:52:51;;;;;;;1999.90;999.90;;;3.30;99.90;;;;;;5067673;28;20033;-80
2024/01/13 02:55:17;;;;;;;1999.90;999.90;;;4.20;99.90;;;;;;5068568;28;20041;-80
2024/01/13 02:57:43;;;;;;;1999.90;999.90;;;3.30;99.90;;;;;;5052237;28;20075;-79
2024/01/13 03:00:09;;;;;;;1999.90;999.90;;;3.20;99.90;;;;;;5067480;28;20060;-80
2024/01/13 03:02:35;;;;;;;1999.90;999.90;;;3.20;99.90;;;;;;5053006;28;20060;-79
2024/01/13 03:05:01;;;;;;;1999.90;999.90;;;3.20;99.90;;;;;;5065786;28;20124;-80
2024/01/13 03:07:27;;;;;;;1999.90;999.90;;;3.20;99.90;;;;;;5069345;28;20068;-80
2024/01/13 03:09:52;;;;;;;1999.90;999.90;;;3.10;99.90;;;;;;5045603;28;20561;-80
2024/01/13 03:12:18;;;;;;;1999.90;999.90;;;3.10;99.90;;;;;;5069435;28;20033;-80
2024/01/13 03:14:45;;;;;;;1999.90;999.90;;;3.60;99.90;;;;;;5072273;28;20029;-80
2024/01/13 03:17:11;;;;;;;1999.90;999.90;;;3.30;99.90;;;;;;5050147;28;20052;-80
2024/01/13 03:19:36;;;;;;;1999.90;999.90;;;3.20;99.90;;;;;;5030244;28;20168;-80
2024/01/13 03:22:02;;;;;;;1999.90;999.90;;;3.30;99.90;;;;;;5050167;28;20167;-81
2024/01/13 03:24:28;;;;;;;1999.90;999.90;;;3.30;99.90;;;;;;5068659;28;20082;-80
2024/01/13 03:26:53;;;;;;;1999.90;999.90;;;3.30;99.90;;;;;;5066319;28;20074;-80
2024/01/13 03:29:19;;;;;;;1999.90;999.90;;;3.30;99.90;;;;;;5048850;28;20041;-80
2024/01/13 03:31:44;;;;;;;1999.90;999.90;;;3.50;99.90;;;;;;5050144;28;20036;-79
2024/01/13 03:34:11;;;;;;;1999.90;999.90;;;3.30;99.90;;;;;;5069297;28;20572;-79
2024/01/13 03:36:37;;;;;;;1999.90;999.90;;;3.30;99.90;;;;;;5064597;28;20098;-80
2024/01/13 03:39:03;;;;;;;1999.90;999.90;;;3.30;99.90;;;;;;5065340;28;20033;-79
2024/01/13 03:41:29;;;;;;;1999.90;999.90;;;3.30;99.90;;;;;;5050854;28;20037;-80
2024/01/13 03:43:57;;;;;;;1999.90;999.90;;;3.30;99.90;;;;;;5045673;28;20036;-80
2024/01/13 03:46:23;;;;;;;1999.90;999.90;;;3.30;99.90;;;;;;5051806;28;20394;-80
2024/01/13 03:48:48;;;;;;;1999.90;999.90;;;3.30;99.90;;;;;;5049175;28;20047;-80
2024/01/13 03:51:16;;;;;;;1999.90;999.90;;;3.30;99.90;;;;;;5064366;28;20033;-80
2024/01/13 03:53:41;;;;;;;1999.90;999.90;;;4.70;99.90;;;;;;5068152;28;20619;-80
2024/01/13 03:56:08;;;;;;;1999.90;999.90;;;3.80;99.90;;;;;;5067504;28;20029;-80
2024/01/13 03:58:35;;;;;;;1999.90;999.90;;;3.40;99.90;;;;;;5051097;28;20143;-80
2024/01/13 04:01:00;;;;;;;1999.90;999.90;;;3.40;99.90;;;;;;5048766;28;20068;-79
2024/01/13 04:03:26;;;;;;;1999.90;999.90;;;3.90;99.90;;;;;;5048517;28;20072;-79
2024/01/13 04:05:52;;;;;;;1999.90;999.90;;;3.40;99.90;;;;;;5067001;28;20614;-80
2024/01/13 04:08:18;;;;;;;1999.90;999.90;;;3.40;99.90;;;;;;5064019;28;20037;-80
2024/01/13 04:10:44;;;;;;;1999.90;999.90;;;3.40;99.90;;;;;;5064013;28;20131;-79
2024/01/13 04:13:12;;;;;;;1999.90;999.90;;;3.20;99.90;;;;;;5047343;28;20068;-79
2024/01/13 04:15:37;;;;;;;1999.90;999.90;;;3.40;99.90;;;;;;5051122;28;20100;-80
2024/01/13 04:18:03;;;;;;;1999.90;999.90;;;3.40;99.90;;;;;;5060180;28;20060;-80
2024/01/13 04:20:28;;;;;;;1999.90;999.90;;;3.40;99.90;;;;;;5066869;28;20036;-79
2024/01/13 04:22:54;;;;;;;1999.90;999.90;;;3.40;99.90;;;;;;5045228;28;20043;-80
2024/01/13 04:25:20;;;;;;;1999.90;999.90;;;4.40;99.90;;;;;;5046865;28;20048;-80
2024/01/13 04:27:45;;;;;;;1999.90;999.90;;;3.40;99.90;;;;;;5066955;28;20436;-80
2024/01/13 04:30:11;;;;;;;1999.90;999.90;;;3.40;99.90;;;;;;5046564;28;20075;-80
2024/01/13 04:32:38;;;;;;;1999.90;999.90;;;3.40;99.90;;;;;;5067271;28;20029;-80
2024/01/13 04:35:04;;;;;;;1999.90;999.90;;;2.80;99.90;;;;;;5062099;28;20039;-80
2024/01/13 04:37:30;;;;;;;1999.90;999.90;;;3.40;99.90;;;;;;5063120;28;20033;-80
2024/01/13 04:39:55;;;;;;;1999.90;999.90;;;3.40;99.90;;;;;;5046610;28;20040;-80
2024/01/13 04:42:21;;;;;;;1999.90;999.90;;;3.40;99.90;;;;;;5062217;28;20064;-80
2024/01/13 04:44:46;;;;;;;1999.90;999.90;;;3.40;99.90;;;;;;5065379;28;20039;-80
2024/01/13 04:47:12;;;;;;;1999.90;999.90;;;3.40;99.90;;;;;;5047732;28;20036;-80
2024/01/13 04:49:38;;;;;;;1999.90;999.90;;;3.30;99.90;;;;;;5046316;28;20090;-79
2024/01/13 04:52:03;;;;;;;1999.90;999.90;;;3.40;99.90;;;;;;5045130;28;20036;-80
2024/01/13 04:54:29;;;;;;;1999.90;999.90;;;3.40;99.90;;;;;;5041921;28;20040;-80
2024/01/13 04:56:55;;;;;;;1999.90;999.90;;;3.40;99.90;;;;;;5063638;28;20045;-80
2024/01/13 04:59:20;;;;;;;1999.90;999.90;;;3.40;99.90;;;;;;5048386;28;20150;-80
2024/01/13 05:01:46;;;;;;;1999.90;999.90;;;3.40;99.90;;;;;;5064134;28;20126;-80
2024/01/13 05:04:11;;;;;;;1999.90;999.90;;;3.40;99.90;;;;;;5047804;28;20056;-79
2024/01/13 05:06:37;;;;;;;1999.90;999.90;;;3.40;99.90;;;;;;5049423;28;20040;-79
2024/01/13 05:09:04;;;;;;;1999.90;999.90;;;3.40;99.90;;;;;;5063322;28;20076;-80
2024/01/13 05:11:30;;;;;;;1999.90;999.90;;;3.40;99.90;;;;;;5066460;28;20484;-79
2024/01/13 05:13:55;;;;;;;1999.90;999.90;;;3.40;99.90;;;;;;5061213;28;20033;-81
2024/01/13 05:16:21;;;;;;;1999.90;999.90;;;3.40;99.90;;;;;;5059586;28;20124;-80
2024/01/13 05:18:47;;;;;;;1999.90;999.90;;;3.50;99.90;;;;;;5063042;28;20063;-80
2024/01/13 05:21:13;;;;;;;1999.90;999.90;;;3.40;99.90;;;;;;5063286;28;20096;-80
2024/01/13 05:23:41;;;;;;;1999.90;999.90;;;3.40;99.90;;;;;;5066387;28;20048;-80
2024/01/13 05:26:07;;;;;;;1999.90;999.90;;;3.40;99.90;;;;;;5061598;28;20040;-79
2024/01/13 05:28:32;;;;;;;1999.90;999.90;;;3.30;99.90;;;;;;5065583;28;20037;-80
2024/01/13 05:30:58;;;;;;;1999.90;999.90;;;3.30;99.90;;;;;;5062664;28;20040;-80
2024/01/13 05:33:24;;;;;;;1999.90;999.90;;;3.50;99.90;;;;;;5046638;28;20088;-80
2024/01/13 05:35:49;;;;;;;1999.90;999.90;;;3.30;99.90;;;;;;5047846;28;20043;-81
2024/01/13 05:38:18;;;;;;;1999.90;999.90;;;3.30;99.90;;;;;;5062141;28;20041;-80
2024/01/13 05:40:44;;;;;;;1999.90;999.90;;;3.30;99.90;;;;;;5062353;28;20043;-80
2024/01/13 05:43:10;;;;;;;1999.90;999.90;;;3.30;99.90;;;;;;5061218;28;20413;-80
2024/01/13 05:45:36;;;;;;;1999.90;999.90;;;3.30;99.90;;;;;;5063840;28;20465;-80
2024/01/13 05:48:01;;;;;;;1999.90;999.90;;;3.30;99.90;;;;;;5062758;28;20076;-80
2024/01/13 05:50:27;;;;;;;1999.90;999.90;;;3.30;99.90;;;;;;5059877;28;20037;-80
2024/01/13 05:52:53;;;;;;;1999.90;999.90;;;3.40;99.90;;;;;;5045307;28;20033;-80
2024/01/13 05:55:19;;;;;;;1999.90;999.90;;;3.40;99.90;;;;;;5062240;28;20136;-80
2024/01/13 05:57:44;;;;;;;1999.90;999.90;;;3.40;99.90;;;;;;5046371;28;20128;-81
2024/01/13 06:00:10;;;;;;;1999.90;999.90;;;3.10;99.90;;;;;;5060322;28;20137;-80
2024/01/13 06:02:36;;;;;;;1999.90;999.90;;;3.40;99.90;;;;;;5064053;28;20040;-80
2024/01/13 06:05:01;;;;;;;1999.90;999.90;;;3.40;99.90;;;;;;5050990;28;20041;-81
2024/01/13 06:07:27;;;;;;;1999.90;999.90;;;3.40;99.90;;;;;;5055113;28;20067;-79
2024/01/13 06:09:53;;;;;;;1999.90;999.90;;;3.40;99.90;;;;;;5052132;28;20553;-80
2024/01/13 06:12:20;;;;;;;1999.90;999.90;;;3.40;99.90;;;;;;5068105;28;20036;-80
2024/01/13 06:14:46;;;;;;;1999.90;999.90;;;3.40;99.90;;;;;;5048455;28;20473;-80
2024/01/13 06:17:15;;;;;;;1999.90;999.90;;;3.20;99.90;;;;;;5070611;28;20056;-80
2024/01/13 06:19:41;;;;;;;1999.90;999.90;;;3.40;99.90;;;;;;5070066;28;20049;-80
2024/01/13 06:22:07;;;;;;;1999.90;999.90;;;3.40;99.90;;;;;;5053093;28;20071;-80
2024/01/13 06:24:33;;;;;;;1999.90;999.90;;;3.50;99.90;;;;;;5071775;28;20044;-81
2024/01/13 06:26:59;;;;;;;1999.90;999.90;;;3.40;99.90;;;;;;5073301;28;20033;-79
2024/01/13 06:29:25;;;;;;;1999.90;999.90;;;3.90;99.90;;;;;;5067889;28;20032;-81
2024/01/13 06:31:51;;;;;;;1999.90;999.90;;;4.60;99.90;;;;;;5046530;28;20045;-80
2024/01/13 06:34:16;;;;;;;1999.90;999.90;;;3.40;99.90;;;;;;5067999;28;20043;-79
2024/01/13 06:36:42;;;;;;;1999.90;999.90;;;4.30;99.90;;;;;;5047701;28;20064;-80
2024/01/13 06:39:08;;;;;;;1999.90;999.90;;;3.50;99.90;;;;;;5068789;28;20044;-79
2024/01/13 06:41:34;;;;;;;1999.90;999.90;;;3.40;99.90;;;;;;5070716;28;20539;-79
2024/01/13 06:43:59;;;;;;;1999.90;999.90;;;3.40;99.90;;;;;;5070908;28;20115;-81
2024/01/13 06:46:25;;;;;;;1999.90;999.90;;;3.40;99.90;;;;;;5050516;28;20094;-79
2024/01/13 06:48:50;;;;;;;1999.90;999.90;;;3.40;99.90;;;;;;5073022;28;20673;-79
2024/01/13 06:51:16;;;;;;;1999.90;999.90;;;3.40;99.90;;;;;;5069238;28;20044;-80
2024/01/13 06:53:42;;;;;;;1999.90;999.90;;;3.40;99.90;;;;;;5070700;28;20059;-80
2024/01/13 06:56:08;;;;;;;1999.90;999.90;;;4.40;99.90;;;;;;5063671;28;20055;-80
2024/01/13 06:58:34;;;;;;;1999.90;999.90;;;3.40;99.90;;;;;;5063226;28;20037;-80
2024/01/13 07:01:00;;;;;;;1999.90;999.90;;;3.40;99.90;;;;;;5065390;28;20079;-80
2024/01/13 07:03:26;;;;;;;1999.90;999.90;;;3.40;99.90;;;;;;5068116;28;20513;-80
2024/01/13 07:05:52;;;;;;;1999.90;999.90;;;3.40;99.90;;;;;;5065943;28;20102;-80
2024/01/13 07:08:18;;;;;;;1999.90;999.90;;;3.40;99.90;;;;;;5069404;28;20040;-80
2024/01/13 07:10:43;;;;;;;1999.90;999.90;;;3.80;99.90;;;;;;5067484;28;20044;-79
2024/01/13 07:13:09;;;;;;;1999.90;999.90;;;3.40;99.90;;;;;;5052684;28;20408;-80
2024/01/13 07:15:35;;;;;;;1999.90;999.90;;;3.40;99.90;;;;;;5070877;28;20112;-81
2024/01/13 07:18:01;;;;;;;1999.90;999.90;;;3.40;99.90;;;;;;5050412;28;20064;-79
2024/01/13 07:20:27;;;;;;;1999.90;999.90;;;3.40;99.90;;;;;;5068610;28;20041;-80
2024/01/13 07:22:53;;;;;;;1999.90;999.90;;;3.70;99.90;;;;;;5067011;28;20094;-79
2024/01/13 07:25:19;;;;;;;1999.90;999.90;;;3.80;99.90;;;;;;5050147;28;20036;-79
2024/01/13 07:27:45;;;;;;;1999.90;999.90;;;3.80;99.90;;;;;;5049539;28;20497;-80
2024/01/13 07:30:12;;;;;;;1999.90;999.90;;;4.70;99.90;;;;;;5059090;28;20080;-80
2024/01/13 07:32:37;;;;;;;1999.90;999.90;;;3.40;99.90;;;;;;5064933;28;20123;-80
2024/01/13 07:35:04;;;;;;;1999.90;999.90;;;3.50;99.90;;;;;;5056053;28;20025;-81
2024/01/13 07:37:29;;;;;;;1999.90;999.90;;;3.40;99.90;;;;;;5050667;28;20096;-81
2024/01/13 07:39:55;;;;;;;1999.90;999.90;;;3.40;99.90;;;;;;5067414;28;20075;-79
2024/01/13 07:42:21;;;;;;;1999.90;999.90;;;4.60;99.90;;;;;;5069674;28;20067;-80
2024/01/13 07:44:47;;;;;;;1999.90;999.90;;;3.50;99.90;;;;;;5067158;28;20041;-79
2024/01/13 07:47:13;;;;;;;1999.90;999.90;;;4.60;99.90;;;;;;5047718;28;20044;-80
2024/01/13 07:49:38;;;;;;;1999.90;999.90;;;4.10;99.90;;;;;;5051508;28;20493;-79
2024/01/13 07:52:06;;;;;;;1999.90;999.90;;;4.50;99.90;;;;;;5052300;28;20035;-80
2024/01/13 07:54:33;;;;;;;1999.90;999.90;;;3.40;99.90;;;;;;5066002;28;20041;-79
2024/01/13 07:56:59;;;;;;;1999.90;999.90;;;4.10;99.90;;;;;;5065330;28;20063;-79
2024/01/13 07:59:25;;;;;;;1999.90;999.90;;;3.50;99.90;;;;;;5065784;28;20040;-79
2024/01/13 08:01:51;;;;;;;1999.90;999.90;;;3.50;99.90;;;;;;5048516;28;20117;-79
2024/01/13 08:04:16;;;;;;;1999.90;999.90;;;3.50;99.90;;;;;;5065214;28;20051;-81
2024/01/13 08:06:42;;;;;;;1999.90;999.90;;;3.70;99.90;;;;;;5068805;28;20036;-79
2024/01/13 08:09:08;;;;;;;1999.90;999.90;;;3.50;99.90;;;;;;5069457;28;20056;-81
2024/01/13 08:11:33;;;;;;;1999.90;999.90;;;3.50;99.90;;;;;;5051763;28;20029;-80
2024/01/13 08:14:00;;;;;;;1999.90;999.90;;;3.60;99.90;;;;;;5074671;28;20039;-79
2024/01/13 08:16:26;;;;;;;1999.90;999.90;;;3.60;99.90;;;;;;5049429;28;20064;-81
2024/01/13 08:18:51;;;;;;;1999.90;999.90;;;3.60;99.90;;;;;;5047089;28;20048;-79
2024/01/13 08:21:18;;;;;;;1999.90;999.90;;;3.60;99.90;;;;;;5049806;28;20040;-79
2024/01/13 08:23:43;;;;;;;1999.90;999.90;;;3.60;99.90;;;;;;5065317;28;20517;-80
2024/01/13 08:26:09;;;;;;;1999.90;999.90;;;3.60;99.90;;;;;;5065716;28;20040;-80
2024/01/13 08:28:35;;;;;;;1999.90;999.90;;;4.30;99.90;;;;;;5061489;28;20090;-80
2024/01/13 08:31:00;;;;;;;1999.90;999.90;;;3.60;99.90;;;;;;5065614;28;20064;-80
2024/01/13 08:33:26;;;;;;;1999.90;999.90;;;3.60;99.90;;;;;;5053417;28;20072;-80
2024/01/13 08:35:52;;;;;;;1999.90;999.90;;;4.70;99.90;;;;;;5065268;28;20033;-79
2024/01/13 08:38:17;;;;;;;1999.90;999.90;;;3.60;99.90;;;;;;5048847;28;20543;-81
2024/01/13 08:40:47;;;;;;;1999.90;999.90;;;3.60;99.90;;;;;;5066457;28;20501;-79
2024/01/13 08:43:13;;;;;;;1999.90;999.90;;;3.60;99.90;;;;;;5072021;28;20045;-80
2024/01/13 08:45:40;;;;;;;1999.90;999.90;;;3.60;99.90;;;;;;5064244;28;20040;-79
2024/01/13 08:48:06;;;;;;;1999.90;999.90;;;2.60;99.90;;;;;;5063532;28;20033;-79
2024/01/13 08:50:32;;;;;;;1999.90;999.90;;;3.60;99.90;;;;;;5063549;28;20104;-80
2024/01/13 08:52:58;;;;;;;1999.90;999.90;;;3.60;99.90;;;;;;5047534;28;20029;-79
2024/01/13 08:55:27;;;;;;;1999.90;999.90;;;3.90;99.90;;;;;;5065631;28;20045;-81
2024/01/13 08:57:53;;;;;;;1999.90;999.90;;;3.60;99.90;;;;;;5061114;28;20053;-81
2024/01/13 09:00:19;;;;;;;1999.90;999.90;;;3.70;99.90;;;;;;5048762;28;20098;-82
2024/01/13 09:02:47;;;;;;;1999.90;999.90;;;3.70;99.90;;;;;;5049967;28;20412;-82
2024/01/13 09:05:13;;;;;;;1999.90;999.90;;;3.70;99.90;;;;;;5038839;28;20038;-82
2024/01/13 09:07:39;;;;;;;1999.90;999.90;;;4.70;99.90;;;;;;5065498;28;20086;-82
2024/01/13 09:10:05;;;;;;;1999.90;999.90;;;3.70;99.90;;;;;;5050979;28;20029;-81
2024/01/13 09:12:31;;;;;;;1999.90;999.90;;;3.70;99.90;;;;;;5045313;28;20029;-81
2024/01/13 09:14:56;;;;;;;1999.90;999.90;;;3.70;99.90;;;;;;5064617;28;20047;-81
2024/01/13 09:17:22;;;;;;;1999.90;999.90;;;3.70;99.90;;;;;;5039406;28;20037;-81
2024/01/13 09:19:48;;;;;;;1999.90;999.90;;;3.70;99.90;;;;;;5066287;28;20033;-81
2024/01/13 09:22:14;;;;;;;1999.90;999.90;;;3.80;99.90;;;;;;5057629;28;20044;-82
2024/01/13 09:24:44;;;;;;;1999.90;999.90;;;4.40;99.90;;;;;;5049309;28;20035;-81
2024/01/13 09:27:09;;;;;;;1999.90;999.90;;;3.80;99.90;;;;;;5060776;28;20186;-82
2024/01/13 09:29:35;;;;;;;1999.90;999.90;;;3.80;99.90;;;;;;5047424;28;20078;-82
2024/01/13 09:32:04;;;;;;;1999.90;999.90;;;3.80;99.90;;;;;;5052368;28;20045;-82
2024/01/13 09:34:30;;;;;;;1999.90;999.90;;;3.80;99.90;;;;;;5047977;28;20036;-81
2024/01/13 09:36:55;;;;;;;1999.90;999.90;;;3.80;99.90;;;;;;5052208;28;20040;-81
2024/01/13 09:39:21;;;;;;;1999.90;999.90;;;3.80;99.90;;;;;;5044903;28;20064;-82
2024/01/13 09:41:48;;;;;;;1999.90;999.90;;;4.90;99.90;;;;;;5068652;28;20045;-82
2024/01/13 09:44:25;;;;;;;1999.90;999.90;;;4.30;99.90;;;;;;5047699;28;20033;-82
2024/01/13 09:46:52;;;;;;;1999.90;999.90;;;3.80;99.90;;;;;;5070564;28;20051;-82
2024/01/13 09:49:19;;;;;;;1999.90;999.90;;;5.10;99.90;;;;;;5069169;28;20072;-82
2024/01/13 09:51:46;;;;;;;1999.90;999.90;;;5.00;99.90;;;;;;5052435;28;20090;-81
2024/01/13 09:54:18;;;;;;;1999.90;999.90;;;4.90;99.90;;;;;;5069335;28;20490;-81
2024/01/13 09:56:45;;;;;;;1999.90;999.90;;;4.00;99.90;;;;;;5053361;28;20106;-81
2024/01/13 09:59:11;;;;;;;1999.90;999.90;;;4.30;99.90;;;;;;5049817;28;20048;-81
2024/01/13 10:01:39;;;;;;;1999.90;999.90;;;3.90;99.90;;;;;;5056796;28;20045;-82
2024/01/13 10:04:05;;;;;;;1999.90;999.90;;;3.90;99.90;;;;;;5053482;28;20413;-82
2024/01/13 10:06:32;;;;;;;1999.90;999.90;;;3.90;99.90;;;;;;5051792;28;20037;-82
2024/01/13 10:08:58;;;;;;;1999.90;999.90;;;4.00;99.90;;;;;;5055558;28;20044;-82
2024/01/13 10:11:24;;;;;;;1999.90;999.90;;;4.00;99.90;;;;;;5074038;28;20126;-83
2024/01/13 10:14:03;;;;;;;1999.90;999.90;;;4.40;99.90;;;;;;5055911;28;20302;-81
2024/01/13 10:16:31;;;;;;;1999.90;999.90;;;5.20;99.90;;;;;;5053829;28;20064;-82
2024/01/13 10:19:08;;;;;;;1999.90;999.90;;;4.70;99.90;;;;;;5052809;28;20033;-82
2024/01/13 10:21:35;;;;;;;1999.90;999.90;;;5.10;99.90;;;;;;5056933;28;20090;-81
2024/01/13 10:24:01;;;;;;;1999.90;999.90;;;4.50;99.90;;;;;;5068611;28;20036;-79
2024/01/13 10:26:29;;;;;;;1999.90;999.90;;;4.80;99.90;;;;;;5053549;28;20033;-82
2024/01/13 10:28:56;;;;;;;1999.90;999.90;;;5.10;99.90;;;;;;5072172;28;20044;-83
2024/01/13 10:31:23;;;;;;;1999.90;999.90;;;4.10;99.90;;;;;;5051447;28;20065;-82
2024/01/13 10:33:50;;;;;;;1999.90;999.90;;;4.10;99.90;;;;;;5047678;28;20044;-83
2024/01/13 10:36:18;;;;;;;1999.90;999.90;;;4.10;99.90;;;;;;5052094;28;20036;-82
2024/01/13 10:38:44;;;;;;;1999.90;999.90;;;4.10;99.90;;;;;;5065706;28;20086;-82
2024/01/13 10:41:10;;;;;;;1999.90;999.90;;;4.10;99.90;;;;;;5055218;28;20028;-82
2024/01/13 10:43:46;;;;;;;1999.90;999.90;;;4.10;99.90;;;;;;5048700;28;20060;-82
2024/01/13 10:46:13;;;;;;;1999.90;999.90;;;4.80;99.90;;;;;;5048778;28;20098;-81
2024/01/13 10:48:43;;;;;;;1999.90;999.90;;;4.10;99.90;;;;;;5063415;28;20033;-84
2024/01/13 10:51:31;;;;;;;1999.90;999.90;;;4.20;99.90;;;;;;5056404;28;20295;-84
2024/01/13 10:54:00;;;;;;;1999.90;999.90;;;4.20;99.90;;;;;;5064042;28;20037;-89
2024/01/13 10:56:27;;;;;;;1999.90;999.90;;;4.20;99.90;;;;;;5048347;28;20215;-84
2024/01/13 10:58:54;;;;;;;1999.90;999.90;;;5.70;99.90;;;;;;5041875;28;20078;-82
2024/01/13 11:01:20;;;;;;;1999.90;999.90;;;5.20;99.90;;;;;;5042368;28;20140;-86
2024/01/13 11:03:49;;;;;;;1999.90;999.90;;;4.30;99.90;;;;;;5041007;28;20067;-85
2024/01/13 11:06:15;;;;;;;1999.90;999.90;;;3.90;99.90;;;;;;5048297;28;20452;-85
2024/01/13 11:08:44;;;;;;;1999.90;999.90;;;4.40;99.90;;;;;;5044166;28;20045;-86
2024/01/13 11:11:11;;;;;;;1999.90;999.90;;;4.40;99.90;;;;;;5049900;28;20037;-83
2024/01/13 11:13:45;;;;;;;1999.90;999.90;;;5.50;99.90;;;;;;5067127;28;20452;-81
2024/01/13 11:16:18;;;;;;;1999.90;999.90;;;5.00;99.90;;;;;;5069993;28;20044;-83
2024/01/13 11:18:52;;;;;;;1999.90;999.90;;;4.50;99.90;;;;;;5067114;28;20067;-80
2024/01/13 11:21:19;;;;;;;1999.90;999.90;;;4.50;99.90;;;;;;5062627;28;20033;-79
2024/01/13 11:23:54;;;;;;;1999.90;999.90;;;4.60;99.90;;;;;;5052097;28;20041;-82
2024/01/13 11:26:22;;;;;;;1999.90;999.90;;;4.60;99.90;;;;;;5052413;28;20090;-82
2024/01/13 11:28:52;;;;;;;1999.90;999.90;;;4.60;99.90;;;;;;5051140;28;20032;-81
2024/01/13 11:31:39;;;;;;;1999.90;999.90;;;4.70;99.90;;;;;;5066020;28;20044;-81
2024/01/13 11:34:08;;;;;;;1999.90;999.90;;;4.70;99.90;;;;;;5046256;28;20037;-81
2024/01/13 11:36:38;;;;;;;1999.90;999.90;;;4.80;99.90;;;;;;5046884;28;20039;-81
2024/01/13 11:39:05;;;;;;;1999.90;999.90;;;4.80;99.90;;;;;;5046670;28;20489;-81
2024/01/13 11:41:51;;;;;;;1999.90;999.90;;;5.30;99.90;;;;;;5064998;28;20036;-81
2024/01/13 11:44:23;;;;;;;1999.90;999.90;;;4.90;99.90;;;;;;5047125;28;20032;-82
2024/01/13 11:47:11;;;;;;;1999.90;999.90;;;5.70;99.90;;;;;;5047878;28;20029;-81
2024/01/13 11:49:44;;;;;;;1999.90;999.90;;;4.80;99.90;;;;;;5047037;28;20421;-81
2024/01/13 11:52:15;;;;;;;;;;;4.80;99.90;;;;;;5044206;28;20102;-81
2024/01/13 11:54:43;;;;;;;1999.90;999.90;;;4.80;99.90;;;;;;5059251;28;19924;-82
2024/01/13 11:57:10;;;;;;;1999.90;999.90;;;5.70;99.90;;;;;;5051987;28;20528;-82
2024/01/13 11:59:37;;;;;;;1999.90;999.90;;;4.90;99.90;;;;;;5042811;28;20238;-81
2024/01/13 12:02:03;;;;;;;1999.90;999.90;;;5.70;99.90;;;;;;5063600;28;20102;-81
2024/01/13 12:04:31;;;;;;;1999.90;999.90;;;4.80;99.90;;;;;;5065744;28;20436;-81